Time;durP1;ratioP1;P1;durP2;ratioP2;P2;SDS_P1;SDS_P2;PMS_P1;PMS_P2;Temp;Humidity;BMP_temperature;BMP_pressure;BME280_temperature;BME280_humidity;BME280_pressure;Samples;Min_cycle;Max_cycle;Signal;HPM_P1;HPM_P2
2021/05/25 00:02:50;;;;;;;0.82;0.60;;;22.70;48.70;;;;;;6319405;28;20025;-65
2021/05/25 00:05:51;;;;;;;1.27;0.70;;;22.70;48.70;;;;;;6320549;28;20035;-65
2021/05/25 00:08:51;;;;;;;0.80;0.40;;;22.70;48.70;;;;;;6300479;28;20029;-65
2021/05/25 00:11:52;;;;;;;0.60;0.50;;;22.70;48.80;;;;;;6295489;28;20436;-65
2021/05/25 00:14:53;;;;;;;0.45;0.40;;;22.70;48.90;;;;;;6295361;28;20063;-65
2021/05/25 00:17:54;;;;;;;1.05;0.40;;;22.70;48.80;;;;;;6305553;28;20563;-65
2021/05/25 00:20:54;;;;;;;1.42;0.60;;;22.70;48.90;;;;;;6320121;28;20036;-65
2021/05/25 00:23:55;;;;;;;0.90;0.63;;;22.70;48.90;;;;;;6320526;28;20076;-65
2021/05/25 00:26:56;;;;;;;1.13;0.40;;;22.70;48.90;;;;;;6320488;28;20344;-64
2021/05/25 00:29:56;;;;;;;0.85;0.45;;;22.70;49.00;;;;;;6320246;28;20024;-65
2021/05/25 00:32:57;;;;;;;1.25;0.70;;;22.70;49.00;;;;;;6310920;28;20440;-65
2021/05/25 00:35:58;;;;;;;0.50;0.45;;;22.70;49.00;;;;;;6294557;28;20024;-65
2021/05/25 00:38:59;;;;;;;0.50;0.40;;;22.70;49.10;;;;;;6294521;28;20028;-65
2021/05/25 00:41:59;;;;;;;0.52;0.45;;;22.60;49.00;;;;;;6294379;28;20020;-65
2021/05/25 00:45:00;;;;;;;0.77;0.50;;;22.70;49.10;;;;;;6294785;28;20068;-65
2021/05/25 00:48:00;;;;;;;0.80;0.50;;;22.60;49.10;;;;;;6293934;28;20115;-65
2021/05/25 00:51:01;;;;;;;0.77;0.47;;;22.60;49.10;;;;;;6293614;28;20045;-65
2021/05/25 00:54:02;;;;;;;0.40;0.40;;;22.60;49.10;;;;;;6294231;28;20388;-65
2021/05/25 00:57:03;;;;;;;0.70;0.55;;;22.60;49.10;;;;;;6294335;28;20033;-65
2021/05/25 01:00:06;;;;;;;0.68;0.50;;;22.60;49.10;;;;;;6316830;28;20031;-65
2021/05/25 01:03:08;;;;;;;0.60;0.50;;;22.60;49.20;;;;;;6313556;28;20225;-65
2021/05/25 01:06:09;;;;;;;0.52;0.40;;;22.60;49.20;;;;;;6293007;28;20020;-65
2021/05/25 01:09:12;;;;;;;0.70;0.55;;;22.60;49.20;;;;;;6304014;28;20032;-65
2021/05/25 01:12:12;;;;;;;0.88;0.40;;;22.60;49.20;;;;;;6318941;28;20381;-65
2021/05/25 01:15:14;;;;;;;0.70;0.50;;;22.60;49.20;;;;;;6313704;28;20032;-66
2021/05/25 01:18:15;;;;;;;0.40;0.40;;;22.60;49.20;;;;;;6293804;28;20504;-65
2021/05/25 01:21:16;;;;;;;0.57;0.40;;;22.60;49.30;;;;;;6292124;28;20032;-66
2021/05/25 01:24:16;;;;;;;0.50;0.50;;;22.60;49.30;;;;;;6302880;28;20069;-65
2021/05/25 01:27:17;;;;;;;0.38;0.30;;;22.60;49.30;;;;;;6319283;28;20095;-66
2021/05/25 01:30:19;;;;;;;0.43;0.32;;;22.60;49.30;;;;;;6301851;28;20069;-66
2021/05/25 01:33:21;;;;;;;0.75;0.45;;;22.60;49.30;;;;;;6293451;28;20017;-65
2021/05/25 01:36:21;;;;;;;0.70;0.40;;;22.60;49.40;;;;;;6292324;28;20394;-66
2021/05/25 01:39:22;;;;;;;0.57;0.40;;;22.60;49.40;;;;;;6299487;28;20112;-66
2021/05/25 01:42:31;;;;;;;0.38;0.30;;;22.60;49.40;;;;;;6317203;28;20030;-66
2021/05/25 01:45:33;;;;;;;0.40;0.40;;;22.60;49.40;;;;;;6301540;28;20029;-65
2021/05/25 01:48:34;;;;;;;0.40;0.40;;;22.60;49.50;;;;;;6293018;28;20249;-65
2021/05/25 01:51:34;;;;;;;0.30;0.30;;;22.60;49.50;;;;;;6292665;28;20087;-65
2021/05/25 01:54:35;;;;;;;0.28;0.28;;;22.60;49.50;;;;;;6299715;28;20024;-65
2021/05/25 01:57:39;;;;;;;0.50;0.40;;;22.60;49.50;;;;;;6301221;28;20123;-65
2021/05/25 02:00:44;;;;;;;0.37;0.37;;;22.60;49.50;;;;;;6292388;28;20038;-65
2021/05/25 02:03:44;;;;;;;0.20;0.20;;;22.60;49.50;;;;;;6290528;28;20031;-65
2021/05/25 02:06:45;;;;;;;0.30;0.30;;;22.60;49.50;;;;;;6316529;28;20389;-65
2021/05/25 02:09:46;;;;;;;0.57;0.50;;;22.60;49.50;;;;;;6313307;28;20064;-65
2021/05/25 02:12:46;;;;;;;0.38;0.38;;;22.60;49.50;;;;;;6293013;28;20098;-65
2021/05/25 02:15:50;;;;;;;0.45;0.30;;;22.60;49.60;;;;;;6304438;28;20024;-65
2021/05/25 02:18:51;;;;;;;0.38;0.30;;;22.60;49.60;;;;;;6317353;28;20017;-65
2021/05/25 02:21:51;;;;;;;0.65;0.35;;;22.60;49.60;;;;;;6317751;28;20052;-65
2021/05/25 02:24:52;;;;;;;0.90;0.50;;;22.60;49.60;;;;;;6317507;28;20620;-65
2021/05/25 02:27:52;;;;;;;0.30;0.30;;;22.60;49.60;;;;;;6317258;28;20038;-65
2021/05/25 02:30:54;;;;;;;0.77;0.40;;;22.60;49.70;;;;;;6313619;28;20032;-66
2021/05/25 02:33:54;;;;;;;0.60;0.30;;;22.60;49.70;;;;;;6317182;28;20111;-66
2021/05/25 02:36:55;;;;;;;0.35;0.35;;;22.60;49.70;;;;;;6317150;28;20084;-65
2021/05/25 02:39:55;;;;;;;0.43;0.35;;;22.60;49.70;;;;;;6316835;28;20029;-65
2021/05/25 02:42:56;;;;;;;0.43;0.40;;;22.60;49.70;;;;;;6317307;28;20070;-65
2021/05/25 02:45:58;;;;;;;0.40;0.30;;;22.60;49.70;;;;;;6317365;28;20040;-66
2021/05/25 02:48:58;;;;;;;0.68;0.40;;;22.60;49.70;;;;;;6317019;28;20431;-66
2021/05/25 02:51:59;;;;;;;0.50;0.32;;;22.60;49.70;;;;;;6316905;28;20135;-66
2021/05/25 02:55:00;;;;;;;0.30;0.30;;;22.60;49.70;;;;;;6315347;28;20473;-65
2021/05/25 02:58:03;;;;;;;0.68;0.47;;;22.60;49.70;;;;;;6292664;28;20556;-65
2021/05/25 03:01:05;;;;;;;0.20;0.20;;;22.60;49.70;;;;;;6299036;28;20028;-65
2021/05/25 03:04:06;;;;;;;1.08;0.50;;;22.60;49.70;;;;;;6317315;28;20024;-65
2021/05/25 03:07:06;;;;;;;0.60;0.30;;;22.60;49.80;;;;;;6299471;28;20062;-65
2021/05/25 03:10:15;;;;;;;0.20;0.20;;;22.60;49.80;;;;;;6291466;28;20029;-65
2021/05/25 03:13:17;;;;;;;0.30;0.30;;;22.60;49.80;;;;;;6291926;28;20025;-65
2021/05/25 03:16:17;;;;;;;0.40;0.32;;;22.60;49.80;;;;;;6300936;28;20028;-66
2021/05/25 03:19:18;;;;;;;0.20;0.20;;;22.60;49.80;;;;;;6321855;28;20040;-65
2021/05/25 03:22:18;;;;;;;0.30;0.30;;;22.60;49.80;;;;;;6307487;28;20024;-65
2021/05/25 03:25:19;;;;;;;0.20;0.20;;;22.60;49.80;;;;;;6296339;28;20036;-65
2021/05/25 03:28:19;;;;;;;0.20;0.20;;;22.60;49.80;;;;;;6295689;28;20036;-66
2021/05/25 03:31:20;;;;;;;0.30;0.30;;;22.60;49.80;;;;;;6297385;28;20032;-65
2021/05/25 03:34:21;;;;;;;0.30;0.30;;;22.60;49.90;;;;;;6296537;28;20028;-65
2021/05/25 03:37:23;;;;;;;0.57;0.35;;;22.60;49.90;;;;;;6309571;28;20464;-65
2021/05/25 03:40:24;;;;;;;0.60;0.30;;;22.60;49.80;;;;;;6321826;28;20024;-65
2021/05/25 03:43:25;;;;;;;0.28;0.20;;;22.60;49.90;;;;;;6300698;28;20313;-65
2021/05/25 03:46:25;;;;;;;0.22;0.20;;;22.60;49.90;;;;;;6295968;28;20024;-65
2021/05/25 03:49:26;;;;;;;0.30;0.30;;;22.60;49.90;;;;;;6295257;28;20107;-65
2021/05/25 03:52:26;;;;;;;0.35;0.30;;;22.60;49.90;;;;;;6305847;28;20052;-66
2021/05/25 03:55:34;;;;;;;0.47;0.28;;;22.60;49.90;;;;;;6320867;28;20047;-65
2021/05/25 03:58:52;;;;;;;0.10;0.10;;;22.60;49.90;;;;;;6301217;28;20024;-66
2021/05/25 04:01:53;;;;;;;1.25;0.30;;;22.60;49.90;;;;;;6290537;28;20433;-65
2021/05/25 04:04:53;;;;;;;0.20;0.20;;;22.60;49.90;;;;;;6269123;28;20032;-65
2021/05/25 04:07:54;;;;;;;0.40;0.30;;;22.60;49.90;;;;;;6297309;28;20032;-65
2021/05/25 04:10:55;;;;;;;0.28;0.28;;;22.60;50.00;;;;;;6320433;28;20385;-65
2021/05/25 04:13:56;;;;;;;0.22;0.20;;;22.60;50.00;;;;;;6320200;28;20060;-65
2021/05/25 04:16:56;;;;;;;0.40;0.30;;;22.60;50.40;;;;;;6319953;28;20051;-66
2021/05/25 04:19:57;;;;;;;0.38;0.20;;;22.60;50.00;;;;;;6294571;28;20040;-65
2021/05/25 04:22:58;;;;;;;1.15;0.22;;;22.60;50.00;;;;;;6302958;28;20051;-65
2021/05/25 04:25:59;;;;;;;0.38;0.30;;;22.60;50.00;;;;;;6318988;28;20113;-66
2021/05/25 04:28:59;;;;;;;0.10;0.10;;;22.60;50.00;;;;;;6319781;28;20028;-65
2021/05/25 04:32:00;;;;;;;0.10;0.10;;;22.60;50.00;;;;;;6319688;28;20369;-65
2021/05/25 04:35:01;;;;;;;0.40;0.38;;;22.60;50.00;;;;;;6295770;28;20017;-66
2021/05/25 04:38:02;;;;;;;0.50;0.25;;;22.60;50.00;;;;;;6295060;28;20033;-66
2021/05/25 04:41:02;;;;;;;0.30;0.25;;;22.60;50.00;;;;;;6295634;28;20028;-66
2021/05/25 04:44:03;;;;;;;0.17;0.17;;;22.60;50.00;;;;;;6295299;28;20036;-67
2021/05/25 04:47:04;;;;;;;0.20;0.20;;;22.60;50.00;;;;;;6310853;28;20027;-66
2021/05/25 04:50:07;;;;;;;0.20;0.20;;;22.60;50.00;;;;;;6320243;28;20093;-67
2021/05/25 04:53:07;;;;;;;0.20;0.20;;;22.60;50.00;;;;;;6304726;28;20021;-66
2021/05/25 04:56:09;;;;;;;0.20;0.20;;;22.60;50.00;;;;;;6294986;28;20029;-65
2021/05/25 04:59:09;;;;;;;0.38;0.20;;;22.60;50.00;;;;;;6306954;28;20481;-66
2021/05/25 05:02:10;;;;;;;0.20;0.20;;;22.60;50.10;;;;;;6298396;28;20016;-66
2021/05/25 05:05:11;;;;;;;0.22;0.22;;;22.60;50.10;;;;;;6314277;28;20076;-66
2021/05/25 05:08:12;;;;;;;0.28;0.20;;;22.60;50.10;;;;;;6318283;28;20035;-67
2021/05/25 05:11:12;;;;;;;0.40;0.20;;;22.60;50.10;;;;;;6318420;28;20027;-67
2021/05/25 05:14:13;;;;;;;0.28;0.25;;;22.50;50.00;;;;;;6310676;28;20036;-67
2021/05/25 05:17:14;;;;;;;0.32;0.20;;;22.60;50.10;;;;;;6295631;28;20052;-66
2021/05/25 05:20:15;;;;;;;0.30;0.20;;;22.60;50.10;;;;;;6308814;28;20062;-65
2021/05/25 05:23:17;;;;;;;0.43;0.30;;;22.60;50.10;;;;;;6283445;28;20300;-66
2021/05/25 05:26:17;;;;;;;0.35;0.30;;;22.60;50.10;;;;;;6316260;28;20103;-66
2021/05/25 05:29:18;;;;;;;0.43;0.22;;;22.60;50.10;;;;;;6298982;28;20404;-66
2021/05/25 05:32:18;;;;;;;0.28;0.20;;;22.60;50.10;;;;;;6317597;28;20035;-65
2021/05/25 05:35:19;;;;;;;0.22;0.22;;;22.60;50.10;;;;;;6317783;28;20035;-66
2021/05/25 05:38:20;;;;;;;0.28;0.20;;;22.60;50.10;;;;;;6292632;28;20032;-66
2021/05/25 05:41:20;;;;;;;0.40;0.30;;;22.60;50.10;;;;;;6292146;28;20035;-65
2021/05/25 05:44:21;;;;;;;0.20;0.20;;;22.60;51.30;;;;;;6295027;28;20157;-65
2021/05/25 05:47:22;;;;;;;0.45;0.20;;;22.60;50.60;;;;;;6299030;28;20031;-65
2021/05/25 05:50:22;;;;;;;0.70;0.28;;;22.60;50.40;;;;;;6316752;28;20047;-65
2021/05/25 05:53:23;;;;;;;0.10;0.10;;;22.60;50.40;;;;;;6317377;28;20517;-65
2021/05/25 05:56:25;;;;;;;1.98;0.20;;;22.60;50.40;;;;;;6312154;28;20031;-65
2021/05/25 05:59:26;;;;;;;0.22;0.20;;;22.60;50.30;;;;;;6312127;28;20066;-65
2021/05/25 06:02:26;;;;;;;0.30;0.30;;;22.60;51.10;;;;;;6293875;28;20359;-65
2021/05/25 06:05:27;;;;;;;4.88;0.47;;;22.60;50.40;;;;;;6304998;28;20485;-65
2021/05/25 06:08:27;;;;;;;1.65;0.20;;;22.60;50.30;;;;;;6309294;28;20020;-65
2021/05/25 06:11:28;;;;;;;0.55;0.30;;;22.60;50.40;;;;;;6307267;28;20020;-65
2021/05/25 06:14:29;;;;;;;0.35;0.20;;;22.60;50.30;;;;;;6301330;28;20032;-65
2021/05/25 06:17:29;;;;;;;0.32;0.20;;;22.60;50.30;;;;;;6274679;28;20460;-65
2021/05/25 06:20:31;;;;;;;0.52;0.30;;;22.60;50.30;;;;;;6287960;28;20057;-65
2021/05/25 06:23:33;;;;;;;1.33;0.30;;;22.60;50.40;;;;;;6278321;28;20095;-65
2021/05/25 06:26:33;;;;;;;2.13;0.43;;;22.60;50.40;;;;;;6306744;28;20028;-64
2021/05/25 06:29:34;;;;;;;1.30;0.40;;;22.60;50.70;;;;;;6310810;28;20035;-64
2021/05/25 06:32:36;;;;;;;0.80;0.20;;;22.60;50.60;;;;;;6276205;28;20108;-62
2021/05/25 06:35:37;;;;;;;2.65;0.40;;;22.60;50.70;;;;;;6273937;28;20039;-64
2021/05/25 06:38:38;;;;;;;4.47;0.50;;;22.60;50.60;;;;;;6294132;28;20489;-64
2021/05/25 06:41:38;;;;;;;1.52;0.40;;;22.60;50.70;;;;;;6306182;28;20020;-64
2021/05/25 06:44:39;;;;;;;4.38;0.50;;;22.60;50.70;;;;;;6318502;28;20028;-64
2021/05/25 06:47:39;;;;;;;0.65;0.32;;;22.60;50.60;;;;;;6298504;28;20390;-70
2021/05/25 06:50:40;;;;;;;2.22;0.28;;;22.60;51.30;;;;;;6321516;28;20046;-64
2021/05/25 06:53:40;;;;;;;3.95;0.50;;;22.60;50.60;;;;;;6300742;28;20021;-65
2021/05/25 06:56:41;;;;;;;4.40;0.88;;;22.60;50.30;;;;;;6301119;28;20021;-65
2021/05/25 06:59:42;;;;;;;2.95;0.57;;;22.60;48.60;;;;;;6307588;28;20513;-65
2021/05/25 07:02:43;;;;;;;2.95;0.60;;;22.60;48.20;;;;;;6298414;28;20028;-65
2021/05/25 07:05:43;;;;;;;7.07;1.13;;;22.60;47.30;;;;;;6298739;28;20378;-65
2021/05/25 07:08:44;;;;;;;6.80;0.70;;;22.50;47.00;;;;;;6320782;28;20028;-65
2021/05/25 07:11:44;;;;;;;1.23;0.50;;;22.50;46.40;;;;;;6289020;28;20485;-66
2021/05/25 07:14:45;;;;;;;3.75;0.63;;;22.50;46.10;;;;;;6324296;28;20402;-66
2021/05/25 07:17:48;;;;;;;2.88;0.73;;;22.50;46.30;;;;;;6322407;28;20412;-66
2021/05/25 07:20:49;;;;;;;2.90;0.88;;;22.50;46.60;;;;;;6319641;28;20077;-66
2021/05/25 07:23:50;;;;;;;5.65;0.85;;;22.50;46.20;;;;;;6299153;28;20477;-66
2021/05/25 07:26:51;;;;;;;3.53;0.80;;;22.50;47.40;;;;;;6297771;28;20525;-68
2021/05/25 07:29:51;;;;;;;2.13;0.70;;;22.50;45.00;;;;;;6297076;28;20029;-68
2021/05/25 07:32:52;;;;;;;1.27;0.50;;;22.50;45.40;;;;;;6300261;28;20036;-67
2021/05/25 07:35:53;;;;;;;3.10;0.90;;;22.50;46.10;;;;;;6281225;28;20113;-67
2021/05/25 07:38:54;;;;;;;3.10;0.90;;;22.50;46.90;;;;;;6317236;28;20044;-67
2021/05/25 07:41:54;;;;;;;8.57;0.47;;;22.50;47.40;;;;;;6321128;28;20016;-68
2021/05/25 07:44:56;;;;;;;1.02;0.45;;;22.50;47.60;;;;;;6299138;28;20150;-67
2021/05/25 07:47:57;;;;;;;1.50;0.30;;;22.50;47.80;;;;;;6307436;28;20094;-67
2021/05/25 07:50:58;;;;;;;2.05;0.47;;;22.50;48.00;;;;;;6316627;28;20509;-67
2021/05/25 07:53:59;;;;;;;0.82;0.43;;;22.50;48.20;;;;;;6285973;28;20104;-66
2021/05/25 07:56:59;;;;;;;3.00;0.50;;;22.50;48.30;;;;;;6308058;28;20032;-69
2021/05/25 08:00:00;;;;;;;2.13;0.93;;;22.50;46.60;;;;;;6316481;28;20024;-68
2021/05/25 08:03:00;;;;;;;39.05;3.45;;;22.50;47.90;;;;;;6300305;28;20050;-68
2021/05/25 08:06:02;;;;;;;34.78;3.28;;;22.50;46.30;;;;;;6299342;28;20024;-68
2021/05/25 08:09:05;;;;;;;47.88;4.38;;;22.50;46.00;;;;;;6313021;28;20489;-68
2021/05/25 08:12:06;;;;;;;39.78;3.78;;;22.50;46.00;;;;;;6295427;28;20031;-68
2021/05/25 08:15:09;;;;;;;28.50;4.57;;;22.50;46.30;;;;;;6318877;28;20346;-68
2021/05/25 08:18:23;;;;;;;29.67;3.97;;;22.50;46.50;;;;;;6313803;28;20029;-68
2021/05/25 08:21:23;;;;;;;26.30;4.07;;;22.50;46.80;;;;;;6308933;28;20070;-68
2021/05/25 08:24:24;;;;;;;39.83;4.25;;;22.50;47.30;;;;;;6312882;28;20512;-68
2021/05/25 08:27:25;;;;;;;21.65;3.33;;;22.50;47.30;;;;;;6321133;28;20035;-68
2021/05/25 08:30:28;;;;;;;13.02;2.97;;;22.50;47.50;;;;;;6301144;28;20032;-68
2021/05/25 08:33:28;;;;;;;22.42;2.92;;;22.50;47.70;;;;;;6305758;28;20052;-68
2021/05/25 08:36:32;;;;;;;23.50;3.90;;;22.50;47.70;;;;;;6320276;28;20040;-68
2021/05/25 08:39:33;;;;;;;18.03;2.97;;;22.50;47.70;;;;;;6318851;28;20035;-68
2021/05/25 08:42:34;;;;;;;16.23;2.67;;;22.50;47.60;;;;;;6297658;28;20102;-68
2021/05/25 08:45:35;;;;;;;16.25;2.88;;;22.50;47.40;;;;;;6319787;28;20039;-68
2021/05/25 08:48:42;;;;;;;17.10;2.42;;;22.50;47.60;;;;;;6314507;28;20497;-69
2021/05/25 08:51:43;;;;;;;12.50;2.28;;;22.50;47.80;;;;;;6295841;28;20589;-68
2021/05/25 08:54:44;;;;;;;12.57;2.30;;;22.50;46.90;;;;;;6297412;28;20032;-70
2021/05/25 08:57:47;;;;;;;10.75;2.30;;;22.50;46.70;;;;;;6299858;28;20035;-69
2021/05/25 09:00:49;;;;;;;10.23;1.67;;;22.40;45.00;;;;;;6294931;28;20390;-66
2021/05/25 09:04:02;;;;;;;8.40;1.42;;;22.40;44.60;;;;;;6296150;28;20036;-66
2021/05/25 09:07:02;;;;;;;8.82;1.30;;;22.40;43.80;;;;;;6293334;28;20553;-67
2021/05/25 09:10:21;;;;;;;5.72;1.73;;;22.40;43.70;;;;;;6312714;28;20036;-65
2021/05/25 09:13:24;;;;;;;7.50;1.65;;;22.40;44.70;;;;;;6321418;28;20481;-66
2021/05/25 09:16:24;;;;;;;8.45;1.70;;;22.50;45.40;;;;;;6320599;28;20020;-65
2021/05/25 09:19:44;;;;;;;4.57;1.48;;;22.40;46.20;;;;;;6321699;28;20034;-66
2021/05/25 09:22:45;;;;;;;6.55;1.50;;;22.50;46.70;;;;;;6320031;28;20081;-65
2021/05/25 09:25:54;;;;;;;6.03;1.83;;;22.40;46.90;;;;;;6321625;28;20024;-65
2021/05/25 09:29:03;;;;;;;4.55;1.13;;;22.50;47.20;;;;;;6321513;28;20012;-66
2021/05/25 09:32:08;;;;;;;6.75;1.50;;;22.40;47.20;;;;;;6321572;28;20031;-65
2021/05/25 09:35:10;;;;;;;4.30;1.10;;;22.40;47.30;;;;;;6320635;28;20536;-66
2021/05/25 09:38:15;;;;;;;5.07;1.40;;;22.40;47.40;;;;;;6318685;28;20028;-66
2021/05/25 09:41:16;;;;;;;3.95;1.02;;;22.40;47.60;;;;;;6311385;28;20035;-67
2021/05/25 09:44:16;;;;;;;3.53;0.90;;;22.40;47.70;;;;;;6306439;28;20025;-66
2021/05/25 09:47:17;;;;;;;8.05;1.67;;;22.40;47.80;;;;;;6318247;28;20063;-66
2021/05/25 09:50:20;;;;;;;4.82;1.13;;;22.40;47.90;;;;;;6305597;28;20079;-66
2021/05/25 09:53:23;;;;;;;6.45;1.23;;;22.50;48.00;;;;;;6302958;28;20025;-66
2021/05/25 09:56:29;;;;;;;3.03;1.00;;;22.40;48.00;;;;;;6303158;28;20013;-66
2021/05/25 09:59:32;;;;;;;3.38;0.95;;;22.50;48.20;;;;;;6288824;28;20031;-66
2021/05/25 10:02:32;;;;;;;2.92;0.93;;;22.40;48.10;;;;;;6292401;28;20020;-66
2021/05/25 10:05:33;;;;;;;2.88;0.88;;;22.40;48.20;;;;;;6300410;28;20469;-66
2021/05/25 10:08:34;;;;;;;6.10;1.00;;;22.40;48.20;;;;;;6316561;28;20090;-66
2021/05/25 10:11:40;;;;;;;3.22;1.02;;;22.50;48.40;;;;;;6306722;28;20049;-66
2021/05/25 10:14:41;;;;;;;2.20;0.82;;;22.40;49.00;;;;;;6316094;28;20031;-66
2021/05/25 10:17:55;;;;;;;1.65;0.82;;;22.40;48.40;;;;;;6300676;28;20036;-67
2021/05/25 10:20:58;;;;;;;1.83;0.90;;;22.40;48.50;;;;;;6315679;28;20021;-66
2021/05/25 10:23:59;;;;;;;3.15;0.77;;;22.40;48.50;;;;;;6312978;28;20466;-66
2021/05/25 10:27:00;;;;;;;1.42;0.60;;;22.40;48.50;;;;;;6307263;28;20386;-66
2021/05/25 10:30:00;;;;;;;1.85;0.80;;;22.40;48.50;;;;;;6304022;28;20036;-66
2021/05/25 10:33:07;;;;;;;3.03;0.90;;;22.40;48.60;;;;;;6296025;28;20029;-66
2021/05/25 10:36:09;;;;;;;2.05;0.80;;;22.40;48.60;;;;;;6306472;28;20511;-66
2021/05/25 10:39:32;;;;;;;1.35;0.50;;;22.40;48.70;;;;;;6317267;28;20029;-67
2021/05/25 10:42:34;;;;;;;1.48;0.70;;;22.40;48.70;;;;;;6297706;28;20032;-66
2021/05/25 10:45:40;;;;;;;0.93;0.40;;;22.40;48.70;;;;;;6307947;28;20030;-65
2021/05/25 10:49:15;;;;;;;1.70;0.82;;;22.40;48.70;;;;;;6317840;28;20036;-67
2021/05/25 10:52:16;;;;;;;10.10;1.13;;;22.40;48.80;;;;;;6292681;28;20148;-66
2021/05/25 10:55:26;;;;;;;8.77;1.10;;;22.40;48.80;;;;;;6290676;28;20481;-66
2021/05/25 10:58:31;;;;;;;7.53;1.02;;;22.40;48.80;;;;;;6308725;28;20044;-66
2021/05/25 11:01:32;;;;;;;2.08;0.77;;;22.40;48.80;;;;;;6290047;28;20028;-65
2021/05/25 11:04:37;;;;;;;2.05;0.80;;;22.40;48.80;;;;;;6289097;28;20101;-66
2021/05/25 11:07:40;;;;;;;;;;;22.40;48.80;;;;;;6298637;28;20085;-66
2021/05/25 11:10:42;;;;;;;4.63;0.82;;;22.40;48.80;;;;;;6292978;28;19961;-66
2021/05/25 11:13:45;;;;;;;1.27;0.57;;;22.40;48.90;;;;;;6301793;28;20032;-66
2021/05/25 11:16:46;;;;;;;2.42;0.70;;;22.40;48.90;;;;;;6297176;28;20035;-66
2021/05/25 11:20:09;;;;;;;1.80;0.70;;;22.50;49.00;;;;;;6302455;28;20016;-66
2021/05/25 11:23:43;;;;;;;1.80;0.60;;;22.40;49.00;;;;;;6282056;28;20032;-65
2021/05/25 11:27:04;;;;;;;;;;;22.40;49.00;;;;;;6294381;28;20024;-65
2021/05/25 11:30:08;;;;;;;1.95;0.68;;;22.50;49.10;;;;;;6315701;28;20356;-65
2021/05/25 11:33:09;;;;;;;1.60;0.60;;;22.50;49.20;;;;;;6294764;28;20025;-65
2021/05/25 11:36:12;;;;;;;2.13;0.60;;;22.60;49.40;;;;;;6321624;28;20024;-66
2021/05/25 11:39:13;;;;;;;1.17;0.50;;;22.60;49.20;;;;;;6324152;28;20031;-66
2021/05/25 11:42:14;;;;;;;3.00;0.80;;;22.60;49.20;;;;;;6322987;28;20060;-66
2021/05/25 11:45:21;;;;;;;0.90;0.50;;;22.60;49.20;;;;;;6323288;28;20018;-66
2021/05/25 11:48:23;;;;;;;2.50;0.80;;;22.60;49.30;;;;;;6324324;28;20129;-68
2021/05/25 11:51:28;;;;;;;1.13;0.70;;;22.60;49.10;;;;;;6322579;28;20128;-67
2021/05/25 11:54:30;;;;;;;2.90;0.65;;;22.60;49.10;;;;;;6324227;28;20536;-67
2021/05/25 11:57:35;;;;;;;1.95;0.70;;;22.60;49.10;;;;;;6324039;28;20028;-66
2021/05/25 12:00:36;;;;;;;1.17;0.50;;;22.60;49.10;;;;;;6306891;28;20069;-67
2021/05/25 12:03:37;;;;;;;1.10;0.47;;;22.60;49.20;;;;;;6298390;28;20078;-67
2021/05/25 12:06:59;;;;;;;2.17;0.80;;;22.60;49.20;;;;;;6297345;28;20021;-67
2021/05/25 12:10:02;;;;;;;1.27;0.50;;;22.50;49.20;;;;;;6298660;28;20511;-67
2021/05/25 12:13:21;;;;;;;1.10;0.70;;;22.50;49.20;;;;;;6297767;28;20234;-66
2021/05/25 12:16:21;;;;;;;1.00;0.52;;;22.50;49.20;;;;;;6298519;28;20072;-68
2021/05/25 12:19:22;;;;;;;0.88;0.55;;;22.50;49.20;;;;;;6297892;28;20080;-66
2021/05/25 12:22:36;;;;;;;1.40;0.50;;;22.50;49.30;;;;;;6297843;28;20116;-67
2021/05/25 12:25:38;;;;;;;1.50;0.40;;;22.50;49.30;;;;;;6298266;28;20477;-68
2021/05/25 12:28:39;;;;;;;2.17;0.82;;;22.50;49.30;;;;;;6298025;28;20020;-66
2021/05/25 12:31:41;;;;;;;1.45;0.50;;;22.50;49.30;;;;;;6296314;28;20029;-67
2021/05/25 12:34:41;;;;;;;2.40;0.63;;;22.50;49.40;;;;;;6297584;28;20028;-67
2021/05/25 12:37:42;;;;;;;2.10;0.50;;;22.50;49.40;;;;;;6297524;28;20063;-67
2021/05/25 12:40:59;;;;;;;1.70;0.68;;;22.50;49.40;;;;;;6295655;28;20043;-67
2021/05/25 12:44:11;;;;;;;3.97;0.60;;;22.50;49.40;;;;;;6297433;28;20025;-66
2021/05/25 12:47:14;;;;;;;1.05;0.40;;;22.50;49.50;;;;;;6296828;28;20077;-67
2021/05/25 12:50:15;;;;;;;1.85;0.40;;;22.50;49.50;;;;;;6296987;28;20397;-66
2021/05/25 12:53:18;;;;;;;0.43;0.32;;;22.50;49.60;;;;;;6297191;28;20028;-67
2021/05/25 12:56:22;;;;;;;1.05;0.43;;;22.50;49.50;;;;;;6297409;28;20028;-67
2021/05/25 12:59:24;;;;;;;0.90;0.50;;;22.50;49.50;;;;;;6297053;28;20482;-67
2021/05/25 13:02:50;;;;;;;0.50;0.40;;;22.50;49.60;;;;;;6296523;28;20035;-68
2021/05/25 13:05:52;;;;;;;0.30;0.30;;;22.50;49.60;;;;;;6293175;28;20029;-71
2021/05/25 13:09:21;;;;;;;0.47;0.38;;;22.50;49.60;;;;;;6295725;28;20060;-66
2021/05/25 13:12:35;;;;;;;0.35;0.30;;;22.50;49.60;;;;;;6302224;28;20038;-66
2021/05/25 13:15:37;;;;;;;0.85;0.40;;;22.50;49.60;;;;;;6296933;28;20048;-67
2021/05/25 13:18:44;;;;;;;0.80;0.40;;;22.50;49.60;;;;;;6308265;28;20100;-69
2021/05/25 13:21:45;;;;;;;3.35;0.40;;;22.50;49.60;;;;;;6305024;28;20028;-68
2021/05/25 13:24:56;;;;;;;1.02;0.50;;;22.50;49.60;;;;;;6302528;28;20039;-72
2021/05/25 13:27:56;;;;;;;1.17;0.45;;;22.50;49.60;;;;;;6294429;28;20431;-72
2021/05/25 13:31:13;;;;;;;1.48;0.40;;;22.50;49.60;;;;;;6306613;28;20021;-69
2021/05/25 13:34:24;;;;;;;0.95;0.60;;;22.50;49.60;;;;;;6305042;28;20115;-72
2021/05/25 13:37:25;;;;;;;1.73;0.45;;;22.50;49.60;;;;;;6293736;28;20410;-68
2021/05/25 13:40:26;;;;;;;0.70;0.40;;;22.50;49.60;;;;;;6301640;28;20052;-68
2021/05/25 13:43:26;;;;;;;0.55;0.40;;;22.50;49.60;;;;;;6313028;28;20030;-67
2021/05/25 13:46:27;;;;;;;0.73;0.40;;;22.50;49.60;;;;;;6310783;28;20738;-67
2021/05/25 13:49:28;;;;;;;1.02;0.47;;;22.50;49.60;;;;;;6311493;28;20362;-67
2021/05/25 13:52:29;;;;;;;1.08;0.50;;;22.50;49.70;;;;;;6300571;28;20052;-67
2021/05/25 13:55:33;;;;;;;0.55;0.38;;;22.50;49.70;;;;;;6288863;28;20100;-67
2021/05/25 13:58:34;;;;;;;0.40;0.23;;;22.50;49.70;;;;;;6291344;28;20039;-66
2021/05/25 14:01:36;;;;;;;3.70;0.30;;;22.50;49.70;;;;;;6308676;28;20016;-67
2021/05/25 14:04:36;;;;;;;0.70;0.40;;;22.50;49.70;;;;;;6306721;28;20390;-67
2021/05/25 14:07:41;;;;;;;0.93;0.52;;;22.50;49.70;;;;;;6309537;28;20039;-67
2021/05/25 14:10:43;;;;;;;0.63;0.40;;;22.50;49.70;;;;;;6305469;28;20063;-65
2021/05/25 14:13:43;;;;;;;0.50;0.38;;;22.50;49.70;;;;;;6296653;28;20032;-66
2021/05/25 14:16:44;;;;;;;2.30;0.40;;;22.50;49.70;;;;;;6285650;28;20020;-68
2021/05/25 14:19:45;;;;;;;0.80;0.35;;;22.50;49.70;;;;;;6305753;28;20043;-67
2021/05/25 14:22:45;;;;;;;0.93;0.40;;;22.50;49.70;;;;;;6298321;28;20024;-68
2021/05/25 14:25:46;;;;;;;0.82;0.30;;;22.50;49.70;;;;;;6312207;28;20842;-67
2021/05/25 14:28:47;;;;;;;1.90;0.40;;;22.50;49.80;;;;;;6299996;28;20066;-68
2021/05/25 14:31:48;;;;;;;0.52;0.30;;;22.50;49.70;;;;;;6304940;28;20024;-68
2021/05/25 14:34:48;;;;;;;3.22;0.63;;;22.50;49.80;;;;;;6293370;28;20028;-66
2021/05/25 14:37:49;;;;;;;0.65;0.38;;;22.50;49.70;;;;;;6303245;28;20031;-65
2021/05/25 14:40:50;;;;;;;0.85;0.40;;;22.50;49.40;;;;;;6314586;28;20020;-66
2021/05/25 14:43:51;;;;;;;1.27;0.30;;;22.50;49.40;;;;;;6317445;28;20369;-66
2021/05/25 14:46:54;;;;;;;0.90;0.47;;;22.50;49.40;;;;;;6317029;28;20016;-65
2021/05/25 14:49:55;;;;;;;3.50;0.57;;;22.50;49.50;;;;;;6292031;28;20020;-67
2021/05/25 14:56:21;;;;;;;4.20;0.63;;;22.50;49.50;;;;;;6292964;28;20060;-67
2021/05/25 14:59:22;;;;;;;1.13;0.50;;;22.50;49.60;;;;;;6300777;28;20029;-67
2021/05/25 15:02:28;;;;;;;1.45;0.50;;;22.50;49.60;;;;;;6303245;28;20056;-66
2021/05/25 15:05:34;;;;;;;0.90;0.30;;;22.50;49.60;;;;;;6303307;28;20495;-66
2021/05/25 15:11:50;;;;;;;1.05;0.30;;;22.50;49.60;;;;;;6296370;28;19958;-67
2021/05/25 15:14:52;;;;;;;2.00;0.98;;;22.50;49.60;;;;;;6283556;28;20016;-67
2021/05/25 15:17:53;;;;;;;0.85;0.38;;;22.50;49.70;;;;;;6312009;28;20473;-67
2021/05/25 15:20:54;;;;;;;1.25;0.47;;;22.50;49.70;;;;;;6299943;28;20028;-65
2021/05/25 15:23:55;;;;;;;1.10;0.43;;;22.50;49.70;;;;;;6307425;28;20438;-67
2021/05/25 15:26:55;;;;;;;0.38;0.28;;;22.50;49.70;;;;;;6296071;28;20016;-66
2021/05/25 15:29:56;;;;;;;0.30;0.30;;;22.50;49.70;;;;;;6298390;28;20060;-67
2021/05/25 15:32:56;;;;;;;2.42;0.82;;;22.50;49.70;;;;;;6310259;28;20056;-67
2021/05/25 15:35:58;;;;;;;1.85;0.57;;;22.50;49.70;;;;;;6312432;28;20025;-67
2021/05/25 15:38:58;;;;;;;0.40;0.40;;;22.50;49.70;;;;;;6317120;28;20099;-65
2021/05/25 15:41:59;;;;;;;0.63;0.30;;;22.50;49.70;;;;;;6308051;28;20521;-67
2021/05/25 15:44:59;;;;;;;1.13;0.50;;;22.50;49.70;;;;;;6313639;28;20074;-67
2021/05/25 15:48:00;;;;;;;1.92;0.63;;;22.50;49.70;;;;;;6320102;28;20024;-67
2021/05/25 15:51:01;;;;;;;0.43;0.30;;;22.50;49.70;;;;;;6295964;28;20117;-67
2021/05/25 15:54:03;;;;;;;1.35;0.60;;;22.50;49.70;;;;;;6307310;28;20074;-67
2021/05/25 15:57:04;;;;;;;0.63;0.40;;;22.50;49.70;;;;;;6305739;28;20497;-66